Orbital elements of SL-14 DEB
| Launched | 25 October 1978 |
| Flight ended | – |
| Launch site | Plesetsk Missile and Space Complex, Russia |
| Owner | Commonwealth of Independent States (former USSR) |
| NORAD ID | 19646 |
| Date fetched |
Epoch osculation |
Inc. [°] |
Ecc. | RA asc node [hr] |
Arg Peri. [°] |
Mean anom [°] |
Mean motion [rev/day] |
Abs. mag |
| Date fetched |
Epoch osculation |
Inc. [°] |
Ecc. | RA asc node [hr] |
Arg Peri. [°] |
Mean anom [°] |
Mean motion [rev/day] |
Abs. mag |
| 2026 May 06 17:57 | 2026 May 03 22:51:19 | 82.1354 | 0.01305 | 20.4099 | 176.9672 | 336.2904 | 13.29783 | – |
| 2026 May 05 17:57 | 2026 May 03 22:51:19 | 82.1354 | 0.01305 | 20.4099 | 176.9672 | 336.2904 | 13.29783 | – |
| 2026 May 04 17:57 | 2026 Apr 30 12:58:07 | 82.1389 | 0.01267 | 20.5836 | 185.6606 | 336.2904 | 13.29783 | – |
| 2026 May 03 17:57 | 2026 Apr 30 12:58:07 | 82.1389 | 0.01267 | 20.5836 | 185.6606 | 336.2904 | 13.29783 | – |
| 2026 May 02 17:57 | 2026 Apr 30 12:58:07 | 82.1389 | 0.01267 | 20.5836 | 185.6606 | 336.2904 | 13.29783 | – |
| 2026 May 01 17:56 | 2026 Apr 30 12:58:07 | 82.1389 | 0.01267 | 20.5836 | 185.6606 | 336.2904 | 13.29783 | – |
| 2026 Apr 30 17:56 | 2026 Apr 30 12:58:07 | 82.1389 | 0.01267 | 20.5836 | 185.6606 | 336.2904 | 13.29783 | – |
| 2026 Apr 29 17:57 | 2026 Apr 23 01:00:31 | 82.1358 | 0.01205 | 20.9652 | 206.5946 | 336.2904 | 13.29783 | – |
| 2026 Apr 28 17:56 | 2026 Apr 23 01:00:31 | 82.1358 | 0.01205 | 20.9652 | 206.5946 | 336.2904 | 13.29783 | – |
| 2026 Apr 27 17:58 | 2026 Apr 23 01:00:31 | 82.1358 | 0.01205 | 20.9652 | 206.5946 | 336.2904 | 13.29783 | – |
| 2026 Apr 26 17:58 | 2026 Apr 23 01:00:31 | 82.1358 | 0.01205 | 20.9652 | 206.5946 | 336.2904 | 13.29783 | – |
| 2026 Apr 25 17:58 | 2026 Apr 23 01:00:31 | 82.1358 | 0.01205 | 20.9652 | 206.5946 | 336.2904 | 13.29783 | – |
| 2026 Apr 24 17:59 | 2026 Apr 23 01:00:31 | 82.1358 | 0.01205 | 20.9652 | 206.5946 | 336.2904 | 13.29783 | – |
| 2026 Apr 23 17:57 | 2026 Apr 18 01:39:09 | 82.1330 | 0.01190 | 21.2183 | 221.7660 | 336.2904 | 13.29783 | – |
| 2026 Apr 22 17:57 | 2026 Apr 18 01:39:09 | 82.1330 | 0.01190 | 21.2183 | 221.7660 | 336.2904 | 13.29783 | – |
| 2026 Apr 21 17:57 | 2026 Apr 18 01:39:09 | 82.1330 | 0.01190 | 21.2183 | 221.7660 | 336.2904 | 13.29783 | – |
| 2026 Apr 20 17:57 | 2026 Apr 18 01:39:09 | 82.1330 | 0.01190 | 21.2183 | 221.7660 | 336.2904 | 13.29783 | – |
| 2026 Apr 19 17:58 | 2026 Apr 18 01:39:09 | 82.1330 | 0.01190 | 21.2183 | 221.7660 | 336.2904 | 13.29783 | – |
| 2026 Apr 18 17:56 | 2026 Apr 13 00:47:13 | 82.1313 | 0.01208 | 21.4744 | 237.6087 | 336.2904 | 13.29783 | – |
| 2026 Apr 16 17:57 | 2026 Apr 13 00:47:13 | 82.1313 | 0.01208 | 21.4744 | 237.6087 | 336.2904 | 13.29783 | – |
| 2026 Apr 14 17:57 | 2026 Apr 13 00:47:13 | 82.1313 | 0.01208 | 21.4744 | 237.6087 | 336.2904 | 13.29783 | – |
| 2026 Apr 13 17:57 | 2026 Apr 13 00:47:13 | 82.1313 | 0.01208 | 21.4744 | 237.6087 | 336.2904 | 13.29783 | – |
| 2026 Apr 12 17:57 | 2026 Apr 07 21:15:21 | 82.1263 | 0.01254 | 21.7363 | 253.1737 | 336.2904 | 13.29783 | – |
| 2026 Apr 11 17:57 | 2026 Apr 07 21:15:21 | 82.1263 | 0.01254 | 21.7363 | 253.1737 | 336.2904 | 13.29783 | – |
| 2026 Apr 10 17:58 | 2026 Apr 07 21:15:21 | 82.1263 | 0.01254 | 21.7363 | 253.1737 | 336.2904 | 13.29783 | – |
| 2026 Apr 09 18:01 | 2026 Apr 07 21:15:21 | 82.1263 | 0.01254 | 21.7363 | 253.1737 | 336.2904 | 13.29783 | – |